sensor_id;sensor_type;location;lat;lon;timestamp;pressure;altitude;pressure_sealevel;temperature;humidity
5755;BME280;2902;42.130;24.732;2024-03-23T00:55:19;99671.72;;;8.43;66.91
5755;BME280;2902;42.130;24.732;2024-03-23T00:57:45;99670.78;;;8.36;66.72
5755;BME280;2902;42.130;24.732;2024-03-23T01:00:13;99660.56;;;8.33;66.98
5755;BME280;2902;42.130;24.732;2024-03-23T01:02:39;99666.84;;;8.32;67.61
5755;BME280;2902;42.130;24.732;2024-03-23T01:05:06;99656.63;;;8.29;68.16
5755;BME280;2902;42.130;24.732;2024-03-23T01:07:49;99657.44;;;8.29;68.04
5755;BME280;2902;42.130;24.732;2024-03-23T01:10:17;99658.97;;;8.24;68.00
5755;BME280;2902;42.130;24.732;2024-03-23T01:12:43;99650.72;;;8.19;68.09
5755;BME280;2902;42.130;24.732;2024-03-23T01:15:10;99660.34;;;8.12;68.94
5755;BME280;2902;42.130;24.732;2024-03-23T01:17:36;99653.31;;;8.04;68.10
5755;BME280;2902;42.130;24.732;2024-03-23T01:20:03;99657.50;;;7.91;69.83
5755;BME280;2902;42.130;24.732;2024-03-23T01:22:29;99658.91;;;7.79;70.38
5755;BME280;2902;42.130;24.732;2024-03-23T01:24:56;99652.31;;;7.75;69.99
5755;BME280;2902;42.130;24.732;2024-03-23T01:27:23;99657.28;;;7.78;69.64
5755;BME280;2902;42.130;24.732;2024-03-23T01:29:50;99662.84;;;7.83;69.84
5755;BME280;2902;42.130;24.732;2024-03-23T01:32:17;99661.72;;;7.85;70.53
5755;BME280;2902;42.130;24.732;2024-03-23T01:34:54;99657.88;;;7.88;69.75
5755;BME280;2902;42.130;24.732;2024-03-23T01:37:20;99660.72;;;7.86;69.79
5755;BME280;2902;42.130;24.732;2024-03-23T01:39:47;99663.28;;;7.72;69.96
5755;BME280;2902;42.130;24.732;2024-03-23T01:42:12;99658.06;;;7.56;70.70
5755;BME280;2902;42.130;24.732;2024-03-23T01:44:41;99664.38;;;7.47;71.30
5755;BME280;2902;42.130;24.732;2024-03-23T01:47:06;99669.72;;;7.39;71.17
5755;BME280;2902;42.130;24.732;2024-03-23T01:49:33;99662.84;;;7.22;71.43
5755;BME280;2902;42.130;24.732;2024-03-23T01:51:59;99671.91;;;7.19;71.10
5755;BME280;2902;42.130;24.732;2024-03-23T01:54:26;99671.59;;;7.14;71.04
5755;BME280;2902;42.130;24.732;2024-03-23T01:56:52;99654.59;;;7.09;71.59
5755;BME280;2902;42.130;24.732;2024-03-23T01:59:20;99670.97;;;7.04;71.07
5755;BME280;2902;42.130;24.732;2024-03-23T02:01:47;99668.50;;;7.03;71.61
5755;BME280;2902;42.130;24.732;2024-03-23T02:04:14;99668.50;;;7.03;71.30
5755;BME280;2902;42.130;24.732;2024-03-23T02:06:40;99667.34;;;7.05;70.42
5755;BME280;2902;42.130;24.732;2024-03-23T02:09:07;99663.22;;;7.03;70.93
5755;BME280;2902;42.130;24.732;2024-03-23T02:11:32;99628.09;;;6.86;71.52
5755;BME280;2902;42.130;24.732;2024-03-23T02:13:59;99659.88;;;7.09;70.65
5755;BME280;2902;42.130;24.732;2024-03-23T02:16:25;99659.88;;;7.09;70.24
5755;BME280;2902;42.130;24.732;2024-03-23T02:18:53;99656.91;;;7.12;70.17
5755;BME280;2902;42.130;24.732;2024-03-23T02:21:19;99662.88;;;7.14;70.48
5755;BME280;2902;42.130;24.732;2024-03-23T02:23:47;99662.19;;;7.12;70.85
5755;BME280;2902;42.130;24.732;2024-03-23T02:26:13;99654.97;;;7.06;70.94
5755;BME280;2902;42.130;24.732;2024-03-23T02:28:40;99658.44;;;6.98;71.24
5755;BME280;2902;42.130;24.732;2024-03-23T02:31:06;99654.66;;;6.93;72.23
5755;BME280;2902;42.130;24.732;2024-03-23T02:33:33;99657.47;;;6.99;72.60
5755;BME280;2902;42.130;24.732;2024-03-23T02:36:00;99656.31;;;6.94;71.57
5755;BME280;2902;42.130;24.732;2024-03-23T02:38:26;99656.03;;;6.81;71.88
5755;BME280;2902;42.130;24.732;2024-03-23T02:40:53;99649.59;;;6.67;72.75
5755;BME280;2902;42.130;24.732;2024-03-23T02:43:20;99650.09;;;6.63;73.10
5755;BME280;2902;42.130;24.732;2024-03-23T02:45:46;99658.00;;;6.71;72.92
5755;BME280;2902;42.130;24.732;2024-03-23T02:48:13;99662.81;;;6.59;72.99
5755;BME280;2902;42.130;24.732;2024-03-23T02:50:38;99640.88;;;6.43;73.12
5755;BME280;2902;42.130;24.732;2024-03-23T02:53:05;99653.06;;;6.44;74.26
5755;BME280;2902;42.130;24.732;2024-03-23T02:55:31;99658.38;;;6.36;73.64
5755;BME280;2902;42.130;24.732;2024-03-23T02:57:59;99661.34;;;6.41;73.84
5755;BME280;2902;42.130;24.732;2024-03-23T03:00:27;99656.38;;;6.46;72.96
5755;BME280;2902;42.130;24.732;2024-03-23T03:02:54;99648.78;;;6.51;72.86
5755;BME280;2902;42.130;24.732;2024-03-23T03:05:20;99654.56;;;6.54;72.41
5755;BME280;2902;42.130;24.732;2024-03-23T03:07:47;99656.06;;;6.49;72.45
5755;BME280;2902;42.130;24.732;2024-03-23T03:10:13;99657.38;;;6.45;72.05
5755;BME280;2902;42.130;24.732;2024-03-23T03:12:40;99647.78;;;6.44;72.18
5755;BME280;2902;42.130;24.732;2024-03-23T03:15:08;99636.91;;;6.47;71.79
5755;BME280;2902;42.130;24.732;2024-03-23T03:17:35;99649.78;;;6.42;71.44
5755;BME280;2902;42.130;24.732;2024-03-23T03:20:01;99650.78;;;6.33;70.91
5755;BME280;2902;42.130;24.732;2024-03-23T03:22:30;99645.84;;;6.30;72.83
5755;BME280;2902;42.130;24.732;2024-03-23T03:24:55;99648.78;;;6.35;72.39
5755;BME280;2902;42.130;24.732;2024-03-23T03:27:22;99643.88;;;6.40;72.44
5755;BME280;2902;42.130;24.732;2024-03-23T03:29:48;99643.50;;;6.43;71.85
5755;BME280;2902;42.130;24.732;2024-03-23T03:32:16;99649.31;;;6.46;72.36
5755;BME280;2902;42.130;24.732;2024-03-23T03:34:42;99653.44;;;6.41;71.53
5755;BME280;2902;42.130;24.732;2024-03-23T03:37:09;99655.06;;;6.42;72.73
5755;BME280;2902;42.130;24.732;2024-03-23T03:39:34;99650.94;;;6.39;72.34
5755;BME280;2902;42.130;24.732;2024-03-23T03:42:02;99650.44;;;6.44;72.66
5755;BME280;2902;42.130;24.732;2024-03-23T03:44:32;99662.31;;;6.48;72.64
5755;BME280;2902;42.130;24.732;2024-03-23T03:46:58;99655.38;;;6.47;72.18
5755;BME280;2902;42.130;24.732;2024-03-23T03:49:25;99659.34;;;6.51;72.15
5755;BME280;2902;42.130;24.732;2024-03-23T03:51:53;99661.19;;;6.50;71.91
5755;BME280;2902;42.130;24.732;2024-03-23T03:54:19;99664.63;;;6.51;72.17
5755;BME280;2902;42.130;24.732;2024-03-23T03:56:46;99661.66;;;6.46;72.09
5755;BME280;2902;42.130;24.732;2024-03-23T03:59:12;99668.75;;;6.45;72.50
5755;BME280;2902;42.130;24.732;2024-03-23T04:01:39;99670.72;;;6.43;72.23
5755;BME280;2902;42.130;24.732;2024-03-23T04:04:05;99671.06;;;6.40;72.43
5755;BME280;2902;42.130;24.732;2024-03-23T04:06:33;99671.22;;;6.39;73.00
5755;BME280;2902;42.130;24.732;2024-03-23T04:08:59;99670.91;;;6.34;73.18
5755;BME280;2902;42.130;24.732;2024-03-23T04:11:26;99672.69;;;6.33;72.67
5755;BME280;2902;42.130;24.732;2024-03-23T04:13:51;99677.00;;;6.34;72.61
5755;BME280;2902;42.130;24.732;2024-03-23T04:16:26;99676.50;;;6.31;72.35
5755;BME280;2902;42.130;24.732;2024-03-23T04:18:52;99686.56;;;6.35;72.32
5755;BME280;2902;42.130;24.732;2024-03-23T04:21:19;99684.09;;;6.34;71.35
5755;BME280;2902;42.130;24.732;2024-03-23T04:23:46;99677.66;;;6.36;71.58
5755;BME280;2902;42.130;24.732;2024-03-23T04:26:13;99682.94;;;6.36;71.64
5755;BME280;2902;42.130;24.732;2024-03-23T04:28:40;99683.91;;;6.35;71.17
5755;BME280;2902;42.130;24.732;2024-03-23T04:31:06;99683.44;;;6.40;71.27
5755;BME280;2902;42.130;24.732;2024-03-23T04:33:32;99684.75;;;6.36;71.67
5755;BME280;2902;42.130;24.732;2024-03-23T04:35:58;99690.03;;;6.36;71.00
5755;BME280;2902;42.130;24.732;2024-03-23T04:38:25;99688.72;;;6.40;70.93
5755;BME280;2902;42.130;24.732;2024-03-23T04:40:56;99689.38;;;6.50;71.15
5755;BME280;2902;42.130;24.732;2024-03-23T04:43:23;99690.69;;;6.62;71.32
5755;BME280;2902;42.130;24.732;2024-03-23T04:45:50;99696.88;;;6.93;70.34
5755;BME280;2902;42.130;24.732;2024-03-23T04:48:17;99698.94;;;7.37;69.55
5755;BME280;2902;42.130;24.732;2024-03-23T04:50:43;99705.84;;;7.85;67.47
5755;BME280;2902;42.130;24.732;2024-03-23T04:53:10;99703.25;;;8.30;65.44
5755;BME280;2902;42.130;24.732;2024-03-23T04:55:36;99708.34;;;8.76;62.87
5755;BME280;2902;42.130;24.732;2024-03-23T04:58:05;99707.56;;;9.19;60.78
5755;BME280;2902;42.130;24.732;2024-03-23T05:00:30;99707.75;;;9.61;60.03
5755;BME280;2902;42.130;24.732;2024-03-23T05:02:57;99707.81;;;9.97;57.39
5755;BME280;2902;42.130;24.732;2024-03-23T05:05:23;99710.84;;;10.29;55.41
5755;BME280;2902;42.130;24.732;2024-03-23T05:07:49;99704.91;;;10.27;55.90
5755;BME280;2902;42.130;24.732;2024-03-23T05:10:15;99704.69;;;10.29;54.12
5755;BME280;2902;42.130;24.732;2024-03-23T05:12:42;99705.66;;;10.42;54.32
5755;BME280;2902;42.130;24.732;2024-03-23T05:15:09;99706.22;;;10.59;52.47
5755;BME280;2902;42.130;24.732;2024-03-23T05:17:36;99707.31;;;10.43;53.09
5755;BME280;2902;42.130;24.732;2024-03-23T05:20:03;99703.88;;;10.28;52.89
5755;BME280;2902;42.130;24.732;2024-03-23T05:22:35;99699.78;;;10.26;52.89
5755;BME280;2902;42.130;24.732;2024-03-23T05:25:00;99696.22;;;10.40;53.16
5755;BME280;2902;42.130;24.732;2024-03-23T05:27:30;99697.00;;;10.34;52.95
5755;BME280;2902;42.130;24.732;2024-03-23T05:29:55;99697.31;;;10.45;52.67
5755;BME280;2902;42.130;24.732;2024-03-23T05:32:23;99702.75;;;10.37;52.52
5755;BME280;2902;42.130;24.732;2024-03-23T05:34:49;99697.44;;;10.37;54.87
5755;BME280;2902;42.130;24.732;2024-03-23T05:37:21;99688.75;;;10.71;60.76
5755;BME280;2902;42.130;24.732;2024-03-23T05:39:47;99703.75;;;11.74;52.17
5755;BME280;2902;42.130;24.732;2024-03-23T05:42:15;99698.63;;;12.39;46.94
5755;BME280;2902;42.130;24.732;2024-03-23T05:44:43;99705.22;;;12.76;44.66
5755;BME280;2902;42.130;24.732;2024-03-23T05:47:08;99704.63;;;12.67;43.93
5755;BME280;2902;42.130;24.732;2024-03-23T05:49:37;99693.31;;;12.39;45.05
5755;BME280;2902;42.130;24.732;2024-03-23T05:52:03;99700.66;;;12.37;44.52
5755;BME280;2902;42.130;24.732;2024-03-23T05:54:30;99700.28;;;12.53;46.33
5755;BME280;2902;42.130;24.732;2024-03-23T05:56:55;99702.34;;;12.64;44.60
5755;BME280;2902;42.130;24.732;2024-03-23T05:59:22;99700.28;;;12.66;44.41
5755;BME280;2902;42.130;24.732;2024-03-23T06:01:48;99693.75;;;13.14;54.31
5755;BME280;2902;42.130;24.732;2024-03-23T06:04:15;99694.97;;;14.32;49.72
5755;BME280;2902;42.130;24.732;2024-03-23T06:06:42;99699.66;;;14.43;44.89
5755;BME280;2902;42.130;24.732;2024-03-23T06:09:09;99692.69;;;15.16;42.42
5755;BME280;2902;42.130;24.732;2024-03-23T06:11:34;99701.84;;;15.02;38.77
5755;BME280;2902;42.130;24.732;2024-03-23T06:14:01;99693.06;;;14.70;38.86
5755;BME280;2902;42.130;24.732;2024-03-23T06:16:27;99691.53;;;14.25;40.31
5755;BME280;2902;42.130;24.732;2024-03-23T06:18:54;99692.34;;;14.19;40.02
5755;BME280;2902;42.130;24.732;2024-03-23T06:21:20;99699.50;;;13.81;41.41
5755;BME280;2902;42.130;24.732;2024-03-23T06:23:51;99676.19;;;14.45;48.71
5755;BME280;2902;42.130;24.732;2024-03-23T06:26:17;99697.34;;;15.45;38.36
5755;BME280;2902;42.130;24.732;2024-03-23T06:28:44;99695.97;;;14.93;38.91
5755;BME280;2902;42.130;24.732;2024-03-23T06:31:11;99691.41;;;15.18;39.36
5755;BME280;2902;42.130;24.732;2024-03-23T06:33:37;99696.50;;;15.98;40.29
5755;BME280;2902;42.130;24.732;2024-03-23T06:36:05;99692.88;;;16.41;36.59
5755;BME280;2902;42.130;24.732;2024-03-23T06:38:31;99689.19;;;16.06;37.40
5755;BME280;2902;42.130;24.732;2024-03-23T06:40:59;99690.44;;;16.51;36.20
5755;BME280;2902;42.130;24.732;2024-03-23T06:43:27;99689.41;;;16.52;35.13
5755;BME280;2902;42.130;24.732;2024-03-23T06:45:54;99695.06;;;16.85;34.72
5755;BME280;2902;42.130;24.732;2024-03-23T06:48:20;99693.13;;;17.15;34.43
5755;BME280;2902;42.130;24.732;2024-03-23T06:50:47;99694.47;;;16.83;34.58
5755;BME280;2902;42.130;24.732;2024-03-23T06:53:13;99692.59;;;16.72;34.43
5755;BME280;2902;42.130;24.732;2024-03-23T06:55:39;99692.59;;;16.72;34.33
5755;BME280;2902;42.130;24.732;2024-03-23T06:58:07;99693.09;;;16.80;34.47
5755;BME280;2902;42.130;24.732;2024-03-23T07:00:35;99689.66;;;16.62;34.79
5755;BME280;2902;42.130;24.732;2024-03-23T07:03:01;99697.03;;;16.37;35.61
5755;BME280;2902;42.130;24.732;2024-03-23T07:05:29;99692.28;;;15.91;35.80
5755;BME280;2902;42.130;24.732;2024-03-23T07:07:54;99687.94;;;16.38;35.51
5755;BME280;2902;42.130;24.732;2024-03-23T07:10:21;99688.06;;;16.72;34.24
5755;BME280;2902;42.130;24.732;2024-03-23T07:12:47;99686.94;;;17.37;33.76
5755;BME280;2902;42.130;24.732;2024-03-23T07:15:15;99688.25;;;17.86;32.92
5755;BME280;2902;42.130;24.732;2024-03-23T07:17:41;99684.50;;;17.87;32.75
5755;BME280;2902;42.130;24.732;2024-03-23T07:20:09;99680.00;;;18.04;32.64
5755;BME280;2902;42.130;24.732;2024-03-23T07:22:35;99679.59;;;18.23;32.16
5755;BME280;2902;42.130;24.732;2024-03-23T07:25:02;99679.25;;;18.20;32.16
5755;BME280;2902;42.130;24.732;2024-03-23T07:27:28;99679.16;;;18.15;32.25
5755;BME280;2902;42.130;24.732;2024-03-23T07:29:55;99685.81;;;17.84;32.75
5755;BME280;2902;42.130;24.732;2024-03-23T07:32:22;99672.88;;;17.70;33.38
5755;BME280;2902;42.130;24.732;2024-03-23T07:34:49;99669.75;;;17.50;33.38
5755;BME280;2902;42.130;24.732;2024-03-23T07:37:14;99674.06;;;17.05;33.95
5755;BME280;2902;42.130;24.732;2024-03-23T07:39:41;99656.81;;;17.24;34.36
5755;BME280;2902;42.130;24.732;2024-03-23T07:42:07;99667.50;;;17.70;33.22
5755;BME280;2902;42.130;24.732;2024-03-23T07:44:33;99661.97;;;18.16;32.52
5755;BME280;2902;42.130;24.732;2024-03-23T07:47:00;99657.81;;;18.53;32.45
5755;BME280;2902;42.130;24.732;2024-03-23T07:49:29;99655.06;;;18.81;31.38
5755;BME280;2902;42.130;24.732;2024-03-23T07:51:55;99656.22;;;19.01;30.85
5755;BME280;2902;42.130;24.732;2024-03-23T07:54:22;99650.00;;;18.68;31.42
5755;BME280;2902;42.130;24.732;2024-03-23T07:56:47;99643.09;;;18.72;31.45
5755;BME280;2902;42.130;24.732;2024-03-23T07:59:14;99644.44;;;19.07;31.20
5755;BME280;2902;42.130;24.732;2024-03-23T08:01:40;99637.56;;;19.16;31.17
5755;BME280;2902;42.130;24.732;2024-03-23T08:04:06;99636.53;;;19.55;32.40
5755;BME280;2902;42.130;24.732;2024-03-23T08:06:33;99638.50;;;19.60;32.31
5755;BME280;2902;42.130;24.732;2024-03-23T08:09:00;99640.84;;;19.78;30.67
5755;BME280;2902;42.130;24.732;2024-03-23T08:11:26;99635.25;;;20.06;29.64
5755;BME280;2902;42.130;24.732;2024-03-23T08:13:53;99633.28;;;20.23;29.41
5755;BME280;2902;42.130;24.732;2024-03-23T08:16:19;99625.53;;;20.31;29.94
5755;BME280;2902;42.130;24.732;2024-03-23T08:18:45;99635.53;;;20.31;28.79
5755;BME280;2902;42.130;24.732;2024-03-23T08:21:11;99623.59;;;19.79;29.16
5755;BME280;2902;42.130;24.732;2024-03-23T08:23:39;99629.66;;;19.10;30.11
5755;BME280;2902;42.130;24.732;2024-03-23T08:26:06;99619.19;;;19.46;29.92
5755;BME280;2902;42.130;24.732;2024-03-23T08:28:34;99614.16;;;19.55;29.74
5755;BME280;2902;42.130;24.732;2024-03-23T08:31:02;99613.41;;;19.38;29.83
5755;BME280;2902;42.130;24.732;2024-03-23T08:33:29;99612.19;;;19.29;29.72
5755;BME280;2902;42.130;24.732;2024-03-23T08:35:56;99596.13;;;19.17;30.15
5755;BME280;2902;42.130;24.732;2024-03-23T08:38:23;99599.25;;;18.93;30.50
5755;BME280;2902;42.130;24.732;2024-03-23T08:40:57;99592.22;;;19.25;30.25
5755;BME280;2902;42.130;24.732;2024-03-23T08:43:25;99594.84;;;19.63;30.02
5755;BME280;2902;42.130;24.732;2024-03-23T08:45:50;99594.13;;;19.94;29.00
5755;BME280;2902;42.130;24.732;2024-03-23T08:48:18;99588.72;;;20.15;28.32
5755;BME280;2902;42.130;24.732;2024-03-23T08:50:45;99587.03;;;19.88;28.14
5755;BME280;2902;42.130;24.732;2024-03-23T08:53:12;99587.41;;;20.18;28.25
5755;BME280;2902;42.130;24.732;2024-03-23T08:55:38;99580.59;;;20.42;28.05
5755;BME280;2902;42.130;24.732;2024-03-23T08:58:06;99570.53;;;21.06;36.25
5755;BME280;2902;42.130;24.732;2024-03-23T09:00:34;99568.78;;;21.36;29.91
5755;BME280;2902;42.130;24.732;2024-03-23T09:03:00;99576.03;;;21.97;29.93
5755;BME280;2902;42.130;24.732;2024-03-23T09:05:27;99565.84;;;22.64;25.88
5755;BME280;2902;42.130;24.732;2024-03-23T09:07:56;99564.72;;;23.00;24.59
5755;BME280;2902;42.130;24.732;2024-03-23T09:10:21;99550.06;;;23.01;25.25
5755;BME280;2902;42.130;24.732;2024-03-23T09:12:48;99555.75;;;23.00;24.72
5755;BME280;2902;42.130;24.732;2024-03-23T09:15:15;99549.81;;;22.93;24.80
5755;BME280;2902;42.130;24.732;2024-03-23T09:17:42;99552.03;;;22.66;24.98
5755;BME280;2902;42.130;24.732;2024-03-23T09:20:09;99534.44;;;22.68;24.48
5755;BME280;2902;42.130;24.732;2024-03-23T09:22:36;99536.31;;;22.18;25.33
5755;BME280;2902;42.130;24.732;2024-03-23T09:25:01;99537.66;;;22.35;25.49
5755;BME280;2902;42.130;24.732;2024-03-23T09:27:30;99531.44;;;22.30;26.58
5755;BME280;2902;42.130;24.732;2024-03-23T09:29:55;99526.25;;;22.88;26.06
5755;BME280;2902;42.130;24.732;2024-03-23T09:32:24;99528.31;;;23.31;24.75
5755;BME280;2902;42.130;24.732;2024-03-23T09:34:49;99526.28;;;23.57;27.91
5755;BME280;2902;42.130;24.732;2024-03-23T09:37:16;99522.88;;;23.85;25.24
5755;BME280;2902;42.130;24.732;2024-03-23T09:39:42;99520.19;;;24.23;24.40
5755;BME280;2902;42.130;24.732;2024-03-23T09:42:08;99522.03;;;24.61;24.63
5755;BME280;2902;42.130;24.732;2024-03-23T09:44:35;99523.66;;;24.86;23.79
5755;BME280;2902;42.130;24.732;2024-03-23T09:47:02;99512.94;;;24.99;23.94
5755;BME280;2902;42.130;24.732;2024-03-23T09:49:30;99503.78;;;24.67;23.37
5755;BME280;2902;42.130;24.732;2024-03-23T09:51:57;99503.88;;;24.80;23.50
5755;BME280;2902;42.130;24.732;2024-03-23T09:54:24;99502.88;;;25.00;24.63
5755;BME280;2902;42.130;24.732;2024-03-23T09:56:51;99490.53;;;24.60;23.53
5755;BME280;2902;42.130;24.732;2024-03-23T09:59:16;99484.69;;;24.72;25.43
5755;BME280;2902;42.130;24.732;2024-03-23T10:01:43;99488.41;;;24.52;25.23
5755;BME280;2902;42.130;24.732;2024-03-23T10:04:09;99488.13;;;24.82;25.65
5755;BME280;2902;42.130;24.732;2024-03-23T10:06:37;99476.44;;;25.06;24.91
5755;BME280;2902;42.130;24.732;2024-03-23T10:09:16;99469.47;;;25.18;26.22
5755;BME280;2902;42.130;24.732;2024-03-23T10:11:43;99478.53;;;25.14;23.76
5755;BME280;2902;42.130;24.732;2024-03-23T10:14:29;99467.34;;;24.91;23.31
5755;BME280;2902;42.130;24.732;2024-03-23T10:17:11;99463.97;;;24.52;22.83
5755;BME280;2902;42.130;24.732;2024-03-23T10:19:39;99455.25;;;24.27;22.96
5755;BME280;2902;42.130;24.732;2024-03-23T10:22:08;99457.50;;;23.81;23.42
5755;BME280;2902;42.130;24.732;2024-03-23T10:24:34;99446.69;;;23.76;24.06
5755;BME280;2902;42.130;24.732;2024-03-23T10:27:01;99443.41;;;23.79;24.18
5755;BME280;2902;42.130;24.732;2024-03-23T10:29:27;99433.06;;;23.86;23.65
5755;BME280;2902;42.130;24.732;2024-03-23T10:31:55;99435.91;;;23.66;24.44
5755;BME280;2902;42.130;24.732;2024-03-23T10:34:32;99427.28;;;23.59;24.49
5755;BME280;2902;42.130;24.732;2024-03-23T10:37:00;99424.53;;;23.64;24.38
5755;BME280;2902;42.130;24.732;2024-03-23T10:39:30;99423.41;;;23.65;24.31
5755;BME280;2902;42.130;24.732;2024-03-23T10:41:57;99415.41;;;23.50;24.08
5755;BME280;2902;42.130;24.732;2024-03-23T10:44:23;99411.75;;;23.26;24.24
5755;BME280;2902;42.130;24.732;2024-03-23T10:46:54;99410.25;;;23.00;24.88
5755;BME280;2902;42.130;24.732;2024-03-23T10:49:25;99403.19;;;23.04;25.28
5755;BME280;2902;42.130;24.732;2024-03-23T10:51:53;99406.13;;;23.13;24.64
5755;BME280;2902;42.130;24.732;2024-03-23T10:54:19;99394.44;;;23.22;24.47
5755;BME280;2902;42.130;24.732;2024-03-23T10:56:49;99392.81;;;23.21;24.47
5755;BME280;2902;42.130;24.732;2024-03-23T10:59:16;99383.59;;;23.22;24.13
5755;BME280;2902;42.130;24.732;2024-03-23T11:01:54;99381.53;;;22.99;24.76
5755;BME280;2902;42.130;24.732;2024-03-23T11:04:29;99380.16;;;23.02;24.55
5755;BME280;2902;42.130;24.732;2024-03-23T11:06:56;99374.19;;;23.05;24.51
5755;BME280;2902;42.130;24.732;2024-03-23T11:09:41;99361.50;;;22.95;24.85
5755;BME280;2902;42.130;24.732;2024-03-23T11:12:30;99357.13;;;22.99;24.29
5755;BME280;2902;42.130;24.732;2024-03-23T11:15:01;99348.72;;;23.01;24.16
5755;BME280;2902;42.130;24.732;2024-03-23T11:17:28;99344.13;;;23.01;24.12
5755;BME280;2902;42.130;24.732;2024-03-23T11:19:55;99336.38;;;22.80;24.37
5755;BME280;2902;42.130;24.732;2024-03-23T11:22:38;99328.59;;;22.68;24.59
5755;BME280;2902;42.130;24.732;2024-03-23T11:25:15;99327.56;;;22.59;24.99
5755;BME280;2902;42.130;24.732;2024-03-23T11:27:44;99328.13;;;22.51;25.47
5755;BME280;2902;42.130;24.732;2024-03-23T11:30:15;99316.88;;;22.09;25.46
5755;BME280;2902;42.130;24.732;2024-03-23T11:32:43;99307.69;;;22.00;25.60
5755;BME280;2902;42.130;24.732;2024-03-23T11:35:09;99296.94;;;21.45;26.36
5755;BME280;2902;42.130;24.732;2024-03-23T11:37:37;99300.97;;;21.58;26.30
5755;BME280;2902;42.130;24.732;2024-03-23T11:40:17;99284.47;;;21.69;25.81
5755;BME280;2902;42.130;24.732;2024-03-23T11:42:45;99284.47;;;21.64;26.18
5755;BME280;2902;42.130;24.732;2024-03-23T11:45:12;99278.53;;;21.47;26.00
5755;BME280;2902;42.130;24.732;2024-03-23T11:47:39;99275.84;;;21.47;26.17
5755;BME280;2902;42.130;24.732;2024-03-23T11:50:05;99275.28;;;21.40;26.08
5755;BME280;2902;42.130;24.732;2024-03-23T11:52:32;99262.59;;;21.46;25.63
5755;BME280;2902;42.130;24.732;2024-03-23T11:55:03;99258.28;;;21.35;25.81
5755;BME280;2902;42.130;24.732;2024-03-23T11:57:30;99258.03;;;21.16;25.81
5755;BME280;2902;42.130;24.732;2024-03-23T11:59:57;99251.00;;;21.30;26.19
5755;BME280;2902;42.130;24.732;2024-03-23T12:02:24;99253.69;;;21.30;25.77
5755;BME280;2902;42.130;24.732;2024-03-23T12:04:50;99244.50;;;21.46;26.20
5755;BME280;2902;42.130;24.732;2024-03-23T12:07:18;99229.91;;;21.37;26.58
5755;BME280;2902;42.130;24.732;2024-03-23T12:09:44;99232.56;;;21.52;26.38
5755;BME280;2902;42.130;24.732;2024-03-23T12:12:14;99235.28;;;21.57;26.14
5755;BME280;2902;42.130;24.732;2024-03-23T12:14:40;99230.41;;;21.59;26.26
5755;BME280;2902;42.130;24.732;2024-03-23T12:17:13;99228.81;;;21.58;26.12
5755;BME280;2902;42.130;24.732;2024-03-23T12:19:39;99220.66;;;21.68;25.87
5755;BME280;2902;42.130;24.732;2024-03-23T12:22:07;99217.16;;;21.58;25.59
5755;BME280;2902;42.130;24.732;2024-03-23T12:24:33;99218.00;;;21.53;25.82
5755;BME280;2902;42.130;24.732;2024-03-23T12:27:01;99208.00;;;21.34;25.94
5755;BME280;2902;42.130;24.732;2024-03-23T12:29:29;99206.66;;;21.36;26.11
5755;BME280;2902;42.130;24.732;2024-03-23T12:31:56;99204.25;;;21.35;26.07
5755;BME280;2902;42.130;24.732;2024-03-23T12:34:24;99200.19;;;21.22;25.86
5755;BME280;2902;42.130;24.732;2024-03-23T12:36:50;99194.53;;;21.24;25.43
5755;BME280;2902;42.130;24.732;2024-03-23T12:39:16;99185.59;;;21.33;25.59
5755;BME280;2902;42.130;24.732;2024-03-23T12:41:43;99177.22;;;21.35;25.43
5755;BME280;2902;42.130;24.732;2024-03-23T12:44:09;99179.13;;;21.29;25.30
5755;BME280;2902;42.130;24.732;2024-03-23T12:46:37;99178.53;;;21.47;25.31
5755;BME280;2902;42.130;24.732;2024-03-23T12:49:03;99174.19;;;21.56;25.03
5755;BME280;2902;42.130;24.732;2024-03-23T12:51:41;99152.66;;;21.26;24.92
5755;BME280;2902;42.130;24.732;2024-03-23T12:54:14;99168.81;;;21.36;25.41
5755;BME280;2902;42.130;24.732;2024-03-23T12:56:41;99166.13;;;21.31;25.55
5755;BME280;2902;42.130;24.732;2024-03-23T12:59:06;99156.16;;;21.32;25.83
5755;BME280;2902;42.130;24.732;2024-03-23T13:01:33;99156.19;;;21.12;26.18
5755;BME280;2902;42.130;24.732;2024-03-23T13:03:59;99148.31;;;21.15;25.52
5755;BME280;2902;42.130;24.732;2024-03-23T13:06:26;99147.03;;;20.98;25.84
5755;BME280;2902;42.130;24.732;2024-03-23T13:08:54;99145.91;;;20.89;25.68
5755;BME280;2902;42.130;24.732;2024-03-23T13:11:21;99148.34;;;20.80;25.35
5755;BME280;2902;42.130;24.732;2024-03-23T13:13:46;99133.47;;;20.67;25.07
5755;BME280;2902;42.130;24.732;2024-03-23T13:16:13;99138.06;;;20.57;24.55
5755;BME280;2902;42.130;24.732;2024-03-23T13:18:39;99138.59;;;20.54;24.30
5755;BME280;2902;42.130;24.732;2024-03-23T13:21:05;99133.50;;;20.58;24.31
5755;BME280;2902;42.130;24.732;2024-03-23T13:23:31;99128.88;;;20.53;24.26
5755;BME280;2902;42.130;24.732;2024-03-23T13:26:02;99128.38;;;20.51;23.62
5755;BME280;2902;42.130;24.732;2024-03-23T13:28:28;99122.97;;;20.51;24.15
5755;BME280;2902;42.130;24.732;2024-03-23T13:30:56;99114.88;;;20.46;24.73
5755;BME280;2902;42.130;24.732;2024-03-23T13:33:23;99112.69;;;20.48;25.02
5755;BME280;2902;42.130;24.732;2024-03-23T13:35:50;99108.66;;;20.45;25.05
5755;BME280;2902;42.130;24.732;2024-03-23T13:38:16;99110.53;;;20.40;25.06
5755;BME280;2902;42.130;24.732;2024-03-23T13:40:52;99110.78;;;20.38;24.26
5755;BME280;2902;42.130;24.732;2024-03-23T13:43:20;99104.59;;;20.43;24.85
5755;BME280;2902;42.130;24.732;2024-03-23T13:45:47;99095.97;;;20.41;24.81
5755;BME280;2902;42.130;24.732;2024-03-23T13:48:13;99088.66;;;20.26;24.29
5755;BME280;2902;42.130;24.732;2024-03-23T13:50:39;99096.41;;;19.98;23.09
5755;BME280;2902;42.130;24.732;2024-03-23T13:53:05;99088.84;;;20.00;23.96
5755;BME280;2902;42.130;24.732;2024-03-23T13:55:33;99084.81;;;19.97;24.91
5755;BME280;2902;42.130;24.732;2024-03-23T13:57:59;99072.66;;;19.90;25.22
5755;BME280;2902;42.130;24.732;2024-03-23T14:00:27;99078.59;;;19.92;24.53
5755;BME280;2902;42.130;24.732;2024-03-23T14:02:53;99076.44;;;19.89;25.01
5755;BME280;2902;42.130;24.732;2024-03-23T14:05:19;99064.28;;;19.81;25.44
5755;BME280;2902;42.130;24.732;2024-03-23T14:07:45;99065.63;;;19.84;25.42
5755;BME280;2902;42.130;24.732;2024-03-23T14:10:12;99060.28;;;19.89;25.78